createdAt,value
2019-01-18T00:01:35.983Z,83.61
2019-01-18T00:04:06.855Z,83.47
2019-01-18T00:06:37.741Z,83.69
2019-01-18T00:09:09.107Z,83.22
2019-01-18T00:11:40.332Z,83.45
2019-01-18T00:14:11.126Z,83.67
2019-01-18T00:16:41.759Z,83.99
2019-01-18T00:19:12.592Z,84.30
2019-01-18T00:21:43.486Z,83.10
2019-01-18T00:24:14.161Z,83.02
2019-01-18T00:26:45.230Z,83.17
2019-01-18T00:29:16.106Z,82.37
2019-01-18T00:31:46.913Z,83.28
2019-01-18T00:34:17.716Z,83.41
2019-01-18T00:36:48.673Z,83.06
2019-01-18T00:39:19.251Z,82.90
2019-01-18T00:41:50.068Z,82.47
2019-01-18T00:44:21.030Z,82.11
2019-01-18T00:46:52.107Z,81.85
2019-01-18T00:49:22.897Z,81.86
2019-01-18T00:51:53.685Z,81.70
2019-01-18T00:54:24.565Z,81.98
2019-01-18T00:56:55.506Z,82.25
2019-01-18T00:59:26.385Z,82.31
2019-01-18T01:01:57.229Z,82.54
2019-01-18T01:04:28.026Z,82.32
2019-01-18T01:06:59.000Z,82.43
2019-01-18T01:09:29.792Z,82.32
2019-01-18T01:12:00.711Z,82.10
2019-01-18T01:14:31.602Z,82.79
2019-01-18T01:17:02.466Z,82.87
2019-01-18T01:19:33.442Z,83.20
2019-01-18T01:22:04.414Z,82.35
2019-01-18T01:24:34.986Z,81.88
2019-01-18T01:27:06.069Z,82.31
2019-01-18T01:29:42.945Z,82.54
2019-01-18T01:32:10.128Z,82.46
2019-01-18T01:34:41.057Z,82.70
2019-01-18T01:37:13.046Z,82.77
2019-01-18T01:39:43.956Z,82.46
2019-01-18T01:42:14.820Z,82.74
2019-01-18T01:44:45.698Z,83.01
2019-01-18T01:47:16.682Z,83.44
2019-01-18T01:49:47.570Z,83.01
2019-01-18T01:52:18.498Z,82.36
2019-01-18T01:54:49.461Z,81.76
2019-01-18T01:57:20.373Z,81.28
2019-01-18T01:59:51.126Z,81.66
2019-01-18T02:02:22.012Z,82.38
2019-01-18T02:04:52.796Z,83.80
2019-01-18T02:07:23.922Z,84.43
2019-01-18T02:09:54.817Z,84.22
2019-01-18T02:12:25.582Z,83.03
2019-01-18T02:14:56.278Z,81.73
2019-01-18T02:17:28.226Z,81.51
2019-01-18T02:19:59.038Z,81.65
2019-01-18T02:22:29.953Z,81.88
2019-01-18T02:25:00.715Z,82.42
2019-01-18T02:27:31.686Z,81.64
2019-01-18T02:30:02.505Z,81.70
2019-01-18T02:32:33.513Z,82.01
2019-01-18T02:35:04.874Z,82.13
2019-01-18T02:37:35.865Z,81.35
2019-01-18T02:40:07.727Z,82.67
2019-01-18T02:42:38.957Z,83.31
2019-01-18T02:45:11.109Z,83.09
2019-01-18T02:47:41.935Z,82.31
2019-01-18T02:50:13.182Z,82.67
2019-01-18T02:52:43.981Z,83.69
2019-01-18T02:55:15.462Z,83.65
2019-01-18T02:57:46.549Z,83.88
2019-01-18T03:00:21.754Z,83.64
2019-01-18T03:02:52.982Z,83.52
2019-01-18T03:05:25.771Z,83.46
2019-01-18T03:07:56.773Z,83.41
2019-01-18T03:10:32.031Z,83.16
2019-01-18T03:13:02.955Z,83.06
2019-01-18T03:15:33.823Z,83.35
2019-01-18T03:18:04.815Z,83.29
2019-01-18T03:20:35.598Z,83.24
2019-01-18T03:23:06.913Z,82.88
2019-01-18T03:25:37.803Z,83.25
2019-01-18T03:28:08.505Z,83.61
2019-01-18T03:30:39.359Z,83.45
2019-01-18T03:33:10.144Z,83.55
2019-01-18T03:35:40.969Z,83.04
2019-01-18T03:38:11.915Z,82.80
2019-01-18T03:40:42.844Z,82.23
2019-01-18T03:43:13.791Z,82.40
2019-01-18T03:45:44.584Z,83.03
2019-01-18T03:48:15.473Z,83.26
2019-01-18T03:50:46.387Z,82.34
2019-01-18T03:53:18.261Z,82.09
2019-01-18T03:55:49.389Z,81.84
2019-01-18T03:58:20.238Z,82.00
2019-01-18T04:00:51.037Z,81.23
2019-01-18T04:03:22.010Z,80.83
2019-01-18T04:05:52.905Z,81.07
2019-01-18T04:08:23.731Z,80.98
2019-01-18T04:10:54.714Z,82.30
2019-01-18T04:13:25.234Z,82.92
2019-01-18T04:15:55.878Z,82.44
2019-01-18T04:18:26.731Z,81.80
2019-01-18T04:20:57.350Z,81.42
2019-01-18T04:23:28.049Z,81.45
2019-01-18T04:25:58.915Z,81.10
2019-01-18T04:28:29.874Z,81.05
2019-01-18T04:31:00.573Z,80.87
2019-01-18T04:33:31.341Z,80.11
2019-01-18T04:36:02.226Z,81.24
2019-01-18T04:38:33.244Z,81.36
2019-01-18T04:41:04.142Z,80.18
2019-01-18T04:43:35.167Z,80.12
2019-01-18T04:46:06.087Z,80.40
2019-01-18T04:48:36.893Z,80.78
2019-01-18T04:51:07.796Z,80.23
2019-01-18T04:53:39.250Z,80.31
2019-01-18T04:56:09.987Z,81.68
2019-01-18T04:58:40.953Z,81.95
2019-01-18T05:01:11.746Z,81.93
2019-01-18T05:03:42.551Z,81.97
2019-01-18T05:06:13.425Z,81.51
2019-01-18T05:08:44.164Z,80.64
2019-01-18T05:11:15.066Z,80.39
2019-01-18T05:13:45.843Z,81.02
2019-01-18T05:16:16.735Z,81.79
2019-01-18T05:18:47.280Z,82.47
2019-01-18T05:21:17.822Z,82.97
2019-01-18T05:23:48.721Z,83.00
2019-01-18T05:26:19.597Z,82.82
2019-01-18T05:28:51.564Z,82.23
2019-01-18T05:31:22.399Z,82.12
2019-01-18T05:33:53.535Z,81.58
2019-01-18T05:36:24.005Z,81.80
2019-01-18T05:38:54.599Z,82.17
2019-01-18T05:41:25.073Z,82.88
2019-01-18T05:43:55.874Z,83.06
2019-01-18T05:46:26.775Z,83.39
2019-01-18T05:48:57.294Z,83.59
2019-01-18T05:51:27.858Z,83.60
2019-01-18T05:53:58.731Z,83.23
2019-01-18T05:56:29.333Z,83.08
2019-01-18T05:58:59.926Z,83.05
2019-01-18T06:01:30.543Z,83.03
2019-01-18T06:04:01.130Z,83.31
2019-01-18T06:06:31.610Z,83.45
2019-01-18T06:09:02.213Z,83.01
2019-01-18T06:11:33.686Z,82.69
2019-01-18T06:14:04.327Z,82.59
2019-01-18T06:16:34.796Z,82.58
2019-01-18T06:19:05.987Z,82.76
2019-01-18T06:21:36.693Z,82.52
2019-01-18T06:24:08.619Z,82.61
2019-01-18T06:26:39.160Z,83.38
2019-01-18T06:29:09.902Z,84.13
2019-01-18T06:31:40.388Z,83.47
2019-01-18T06:34:10.989Z,83.79
2019-01-18T06:36:41.472Z,83.41
2019-01-18T06:39:12.000Z,82.66
2019-01-18T06:41:52.139Z,82.36
2019-01-18T06:44:23.312Z,83.57
2019-01-18T06:46:54.523Z,84.98
2019-01-18T06:49:25.169Z,85.11
2019-01-18T06:51:55.716Z,84.58
2019-01-18T06:54:26.284Z,84.37
2019-01-18T06:56:56.944Z,84.08
2019-01-18T06:59:27.720Z,83.69
2019-01-18T07:01:58.624Z,83.47
2019-01-18T07:04:29.399Z,83.27
2019-01-18T07:07:00.292Z,83.10
2019-01-18T07:09:31.122Z,83.20
2019-01-18T07:12:01.558Z,83.13
2019-01-18T07:14:33.356Z,83.08
2019-01-18T07:17:03.944Z,83.66
2019-01-18T07:19:34.473Z,83.87
2019-01-18T07:22:05.077Z,83.88
2019-01-18T07:24:35.593Z,83.48
2019-01-18T07:27:06.078Z,83.28
2019-01-18T07:29:36.591Z,83.65
2019-01-18T07:32:07.087Z,83.72
2019-01-18T07:34:39.018Z,83.52
2019-01-18T07:37:09.489Z,83.35
2019-01-18T07:39:40.076Z,83.38
2019-01-18T07:42:10.547Z,83.87
2019-01-18T07:44:41.441Z,83.78
2019-01-18T07:47:11.911Z,83.97
2019-01-18T07:49:42.421Z,84.09
2019-01-18T07:52:12.900Z,84.22
2019-01-18T07:54:43.409Z,84.20
2019-01-18T07:57:14.387Z,84.09
2019-01-18T07:59:44.955Z,84.47
2019-01-18T08:02:15.426Z,84.32
2019-01-18T08:04:46.021Z,83.78
2019-01-18T08:07:16.814Z,84.12
2019-01-18T08:09:47.349Z,83.85
2019-01-18T08:12:17.827Z,83.67
2019-01-18T08:14:48.421Z,83.60
2019-01-18T08:17:18.929Z,83.48
2019-01-18T08:19:49.422Z,83.72
2019-01-18T08:22:20.070Z,83.69
2019-01-18T08:24:50.763Z,84.44
2019-01-18T08:27:21.234Z,84.09
2019-01-18T08:29:51.783Z,83.70
2019-01-18T08:32:22.261Z,83.54
2019-01-18T08:34:52.841Z,83.17
2019-01-18T08:37:23.776Z,82.64
2019-01-18T08:39:54.310Z,82.64
2019-01-18T08:42:25.099Z,82.37
2019-01-18T08:44:55.775Z,82.79
2019-01-18T08:47:27.327Z,82.61
2019-01-18T08:49:57.857Z,82.13
2019-01-18T08:52:28.656Z,82.65
2019-01-18T08:54:59.227Z,83.25
2019-01-18T08:57:29.723Z,82.29
2019-01-18T09:00:00.321Z,80.92
2019-01-18T09:02:30.793Z,81.13
2019-01-18T09:05:01.313Z,80.75
2019-01-18T09:07:31.792Z,81.41
2019-01-18T09:10:02.396Z,81.54
2019-01-18T09:12:32.874Z,81.63
2019-01-18T09:15:03.734Z,81.64
2019-01-18T09:17:34.207Z,81.77
2019-01-18T09:20:06.023Z,81.37
2019-01-18T09:22:36.534Z,81.20
2019-01-18T09:25:07.466Z,80.90
2019-01-18T09:27:38.039Z,80.37
2019-01-18T09:30:12.057Z,79.65
2019-01-18T09:32:43.813Z,79.97
2019-01-18T09:35:15.563Z,80.69
2019-01-18T09:37:46.399Z,80.54
2019-01-18T09:40:19.498Z,79.96
2019-01-18T09:42:50.080Z,80.13
2019-01-18T09:45:20.882Z,80.26
2019-01-18T09:47:51.730Z,80.37
2019-01-18T09:50:25.510Z,80.35
2019-01-18T09:52:56.296Z,80.69
2019-01-18T09:55:27.382Z,81.14
2019-01-18T09:57:57.882Z,81.09
2019-01-18T10:00:30.773Z,80.43
2019-01-18T10:03:01.897Z,80.54
2019-01-18T10:05:33.292Z,80.56
2019-01-18T10:08:05.198Z,80.51
2019-01-18T10:10:36.265Z,80.18
2019-01-18T10:13:06.726Z,80.15
2019-01-18T10:15:40.027Z,78.39
2019-01-18T10:18:10.633Z,79.62
2019-01-18T10:20:41.268Z,79.86
2019-01-18T10:23:12.476Z,79.83
2019-01-18T10:25:43.708Z,80.11
2019-01-18T10:28:14.278Z,81.04
2019-01-18T10:30:45.029Z,81.37
2019-01-18T10:33:15.501Z,80.61
2019-01-18T10:35:46.302Z,80.41
2019-01-18T10:38:16.809Z,79.87
2019-01-18T10:40:47.554Z,78.87
2019-01-18T10:43:18.075Z,79.60
2019-01-18T10:45:48.907Z,79.97
2019-01-18T10:48:19.375Z,79.83
2019-01-18T10:50:50.402Z,79.95
2019-01-18T10:53:20.875Z,79.46
2019-01-18T10:55:51.410Z,80.56
2019-01-18T10:58:22.026Z,81.64
2019-01-18T11:00:52.666Z,78.97
2019-01-18T11:03:23.136Z,78.23
2019-01-18T11:05:53.666Z,78.62
2019-01-18T11:08:24.137Z,79.00
2019-01-18T11:10:55.097Z,78.27
2019-01-18T11:13:25.557Z,78.18
2019-01-18T11:15:56.451Z,77.85
2019-01-18T11:18:27.331Z,77.29
2019-01-18T11:21:05.454Z,77.39
2019-01-18T11:23:36.269Z,77.24
2019-01-18T11:26:07.118Z,78.76
2019-01-18T11:28:37.805Z,78.72
2019-01-18T11:31:08.375Z,75.64
2019-01-18T11:33:39.098Z,75.76
2019-01-18T11:36:09.642Z,75.15
2019-01-18T11:38:40.532Z,76.67
2019-01-18T11:41:11.113Z,74.56
2019-01-18T11:43:41.593Z,75.41
2019-01-18T11:46:12.472Z,74.74
2019-01-18T11:48:43.398Z,76.57
2019-01-18T11:51:14.193Z,76.88
2019-01-18T11:53:44.970Z,75.64
2019-01-18T11:56:15.735Z,76.48
2019-01-18T11:58:46.238Z,76.73
2019-01-18T12:01:16.920Z,77.34
2019-01-18T12:03:47.768Z,75.88
2019-01-18T12:06:18.558Z,75.74
2019-01-18T12:08:49.442Z,76.24
2019-01-18T12:11:20.321Z,76.45
2019-01-18T12:13:51.250Z,75.72
2019-01-18T12:16:22.145Z,75.26
2019-01-18T12:18:53.946Z,74.62
2019-01-18T12:21:24.742Z,73.19
2019-01-18T12:23:55.586Z,71.66
2019-01-18T12:26:26.861Z,72.97
2019-01-18T12:28:57.806Z,72.20
2019-01-18T12:31:28.611Z,72.99
2019-01-18T12:33:59.342Z,71.33
2019-01-18T12:36:29.866Z,71.33
2019-01-18T12:39:00.706Z,69.52
2019-01-18T12:41:33.040Z,71.33
2019-01-18T12:44:03.542Z,71.54
2019-01-18T12:46:34.126Z,71.68
2019-01-18T12:49:04.968Z,70.52
2019-01-18T12:51:36.072Z,70.49
2019-01-18T12:54:06.950Z,70.54
2019-01-18T12:56:38.082Z,66.13
2019-01-18T12:59:08.866Z,68.75
2019-01-18T13:01:39.863Z,67.49
2019-01-18T13:04:10.537Z,67.71
2019-01-18T13:06:41.908Z,69.13
2019-01-18T13:09:12.829Z,67.42
2019-01-18T13:11:43.714Z,66.82
2019-01-18T13:14:14.507Z,69.80
2019-01-18T13:16:46.990Z,68.16
2019-01-18T13:19:20.549Z,67.83
2019-01-18T13:21:51.422Z,68.83
2019-01-18T13:24:22.306Z,68.33
2019-01-18T13:26:54.539Z,68.79
2019-01-18T13:29:25.317Z,66.77
2019-01-18T13:31:56.354Z,68.18
2019-01-18T13:34:27.226Z,65.03
2019-01-18T13:36:58.119Z,67.07
2019-01-18T13:39:29.008Z,67.68
2019-01-18T13:42:00.043Z,66.19
2019-01-18T13:44:31.802Z,65.18
2019-01-18T13:47:02.550Z,62.99
2019-01-18T13:49:33.339Z,62.74
2019-01-18T13:52:04.229Z,65.45
2019-01-18T13:54:35.126Z,66.29
2019-01-18T13:57:06.717Z,64.48
2019-01-18T13:59:37.538Z,66.84
2019-01-18T14:02:08.675Z,66.01
2019-01-18T14:04:39.414Z,65.81
2019-01-18T14:07:10.210Z,65.60
2019-01-18T14:09:40.978Z,65.81
2019-01-18T14:12:11.863Z,69.11
2019-01-18T14:14:42.898Z,68.47
2019-01-18T14:17:13.638Z,69.67
2019-01-18T14:19:44.408Z,70.82
2019-01-18T14:22:15.277Z,69.98
2019-01-18T14:24:45.798Z,69.44
2019-01-18T14:27:16.752Z,69.25
2019-01-18T14:29:47.822Z,68.74
2019-01-18T14:32:18.661Z,67.81
2019-01-18T14:34:49.553Z,68.23
2019-01-18T14:37:20.410Z,68.86
2019-01-18T14:39:51.198Z,67.81
2019-01-18T14:42:21.978Z,67.96
2019-01-18T14:44:52.766Z,67.63
2019-01-18T14:47:23.659Z,67.57
2019-01-18T14:49:54.365Z,66.87
2019-01-18T14:52:25.140Z,67.91
2019-01-18T14:54:55.941Z,67.12
2019-01-18T14:57:28.483Z,68.02
2019-01-18T14:59:59.346Z,67.55
2019-01-18T15:02:30.171Z,67.69
2019-01-18T15:05:00.818Z,66.98
2019-01-18T15:07:31.505Z,67.80
2019-01-18T15:10:05.115Z,66.76
2019-01-18T15:12:34.853Z,65.71
2019-01-18T15:15:06.514Z,66.02
2019-01-18T15:17:37.492Z,64.86
2019-01-18T15:20:12.978Z,65.32
2019-01-18T15:22:44.230Z,65.44
2019-01-18T15:25:15.082Z,66.65
2019-01-18T15:27:46.061Z,67.93
2019-01-18T15:30:19.287Z,66.64
2019-01-18T15:32:50.098Z,64.12
2019-01-18T15:35:22.823Z,64.55
2019-01-18T15:37:53.875Z,68.02
2019-01-18T15:40:26.114Z,64.71
2019-01-18T15:42:58.858Z,65.95
2019-01-18T15:45:29.721Z,66.26
2019-01-18T15:48:00.578Z,66.79
2019-01-18T15:50:33.960Z,65.27
2019-01-18T15:53:04.947Z,67.60
2019-01-18T15:55:36.007Z,66.53
2019-01-18T15:58:08.048Z,67.27
2019-01-18T16:00:40.998Z,68.66
2019-01-18T16:03:15.788Z,69.35
2019-01-18T16:05:45.622Z,71.41
2019-01-18T16:08:16.410Z,70.52
2019-01-18T16:10:47.199Z,71.44
2019-01-18T16:13:18.159Z,70.49
2019-01-18T16:15:57.992Z,72.54
2019-01-18T16:18:30.278Z,71.07
2019-01-18T16:21:01.027Z,71.98
2019-01-18T16:23:32.194Z,73.40
2019-01-18T16:26:03.106Z,72.13
2019-01-18T16:28:36.285Z,72.91
2019-01-18T16:31:07.137Z,73.44
2019-01-18T16:33:38.110Z,73.59
2019-01-18T16:36:09.242Z,73.82
2019-01-18T16:38:40.252Z,73.65
2019-01-18T16:41:11.990Z,74.56
2019-01-18T16:43:45.298Z,73.80
2019-01-18T16:46:15.951Z,74.86
2019-01-18T16:48:46.935Z,73.90
2019-01-18T16:51:17.728Z,74.71
2019-01-18T16:53:48.525Z,74.58
2019-01-18T16:56:19.379Z,75.34
2019-01-18T16:58:50.085Z,74.74
2019-01-18T17:01:20.971Z,74.92
2019-01-18T17:03:51.793Z,75.40
2019-01-18T17:06:22.573Z,76.19
2019-01-18T17:08:53.629Z,76.44
2019-01-18T17:11:24.515Z,76.53
2019-01-18T17:13:55.206Z,76.48
2019-01-18T17:16:26.297Z,76.21
2019-01-18T17:18:57.263Z,76.66
2019-01-18T17:21:29.380Z,76.17
2019-01-18T17:24:00.186Z,76.01
2019-01-18T17:26:31.115Z,75.48
2019-01-18T17:29:01.914Z,74.97
2019-01-18T17:31:33.070Z,74.95
2019-01-18T17:34:03.971Z,74.98
2019-01-18T17:37:10.898Z,74.96
2019-01-18T17:40:21.011Z,75.05
2019-01-18T17:43:44.805Z,75.51
2019-01-18T17:46:45.747Z,75.47
2019-01-18T17:50:24.816Z,75.42
2019-01-18T17:53:24.388Z,75.25
2019-01-18T17:56:26.362Z,76.10
2019-01-18T17:59:29.294Z,76.26
2019-01-18T18:02:32.570Z,76.48
2019-01-18T18:05:32.355Z,77.00
2019-01-18T18:08:43.655Z,77.50
2019-01-18T18:11:37.933Z,77.28
2019-01-18T18:14:43.711Z,77.79
2019-01-18T18:17:45.765Z,78.32
2019-01-18T18:21:11.023Z,78.72
2019-01-18T18:24:18.354Z,79.11
2019-01-18T18:27:28.302Z,79.28
2019-01-18T18:30:32.499Z,79.05
2019-01-18T18:33:33.829Z,79.19
2019-01-18T18:36:51.819Z,79.34
2019-01-18T18:40:06.534Z,79.79
2019-01-18T18:42:42.586Z,79.69
2019-01-18T18:46:06.580Z,79.03
2019-01-18T18:49:05.031Z,79.36
2019-01-18T18:52:12.751Z,79.60
2019-01-18T18:55:45.500Z,79.72
2019-01-18T18:58:45.764Z,78.97
2019-01-18T19:01:54.246Z,79.18
2019-01-18T19:04:47.307Z,79.04
2019-01-18T19:07:47.122Z,78.87
2019-01-18T19:10:42.224Z,78.91
2019-01-18T19:14:15.012Z,79.01
2019-01-18T19:17:15.999Z,78.83
2019-01-18T19:20:18.838Z,78.79
2019-01-18T19:23:29.415Z,79.32
2019-01-18T19:26:41.818Z,78.75
2019-01-18T19:29:46.454Z,79.33
2019-01-18T19:32:47.217Z,79.35
2019-01-18T19:35:38.346Z,78.40
2019-01-18T19:38:26.038Z,78.56
2019-01-18T19:41:45.617Z,78.98
2019-01-18T19:44:37.516Z,78.84
2019-01-18T19:47:47.604Z,79.10
2019-01-18T19:50:57.648Z,78.81
2019-01-18T19:53:57.304Z,78.94
2019-01-18T19:57:23.799Z,78.40
2019-01-18T20:00:22.191Z,78.68
2019-01-18T20:03:14.567Z,78.85
2019-01-18T20:06:12.553Z,78.75
2019-01-18T20:08:56.643Z,78.77
2019-01-18T20:12:04.354Z,78.83
2019-01-18T20:15:31.463Z,78.92
2019-01-18T20:18:31.804Z,78.91
2019-01-18T20:21:54.570Z,79.37
2019-01-18T20:25:10.218Z,79.84
2019-01-18T20:28:08.041Z,79.63
2019-01-18T20:31:00.401Z,79.57
2019-01-18T20:34:19.675Z,79.36
2019-01-18T20:37:30.975Z,78.98
2019-01-18T20:40:30.006Z,79.57
2019-01-18T20:43:44.716Z,79.74
2019-01-18T20:47:02.864Z,79.56
2019-01-18T20:50:30.013Z,79.76
2019-01-18T20:54:00.170Z,80.05
2019-01-18T20:57:14.489Z,78.84
2019-01-18T21:00:21.165Z,79.93
2019-01-18T21:03:39.427Z,80.77
2019-01-18T21:06:42.510Z,80.53
2019-01-18T21:09:41.532Z,81.04
2019-01-18T21:12:48.794Z,80.24
2019-01-18T21:16:00.414Z,79.78
2019-01-18T21:19:05.724Z,79.47
2019-01-18T21:22:32.416Z,79.27
2019-01-18T21:25:41.813Z,79.26
2019-01-18T21:28:49.110Z,79.12
2019-01-18T21:32:18.022Z,78.94
2019-01-18T21:35:47.912Z,78.49
2019-01-18T21:38:53.675Z,78.40
2019-01-18T21:41:58.836Z,78.35
2019-01-18T21:45:00.472Z,78.37
2019-01-18T21:48:30.103Z,78.31
2019-01-18T21:51:44.827Z,78.82
2019-01-18T21:55:01.463Z,78.75
2019-01-18T21:58:11.421Z,79.25
2019-01-18T22:01:41.089Z,78.62
2019-01-18T22:04:32.365Z,77.69
2019-01-18T22:07:36.822Z,78.35
2019-01-18T22:10:50.207Z,78.66
2019-01-18T22:13:42.281Z,78.22
2019-01-18T22:16:42.772Z,78.52
2019-01-18T22:20:15.415Z,78.26
2019-01-18T22:23:48.043Z,77.87
2019-01-18T22:26:46.247Z,78.21
2019-01-18T22:29:48.802Z,78.08
2019-01-18T22:32:55.383Z,77.65
2019-01-18T22:36:12.000Z,77.99
2019-01-18T22:39:16.347Z,77.88
2019-01-18T22:42:31.071Z,77.52
2019-01-18T22:45:19.165Z,77.61
2019-01-18T22:48:27.672Z,77.80
2019-01-18T22:51:30.217Z,78.23
2019-01-18T22:54:26.194Z,77.74
2019-01-18T22:57:16.331Z,77.69
2019-01-18T23:00:57.313Z,77.86
2019-01-18T23:04:04.958Z,77.90
2019-01-18T23:07:22.742Z,79.17
2019-01-18T23:10:49.539Z,78.89
2019-01-18T23:13:56.988Z,78.30
2019-01-18T23:17:03.098Z,77.72
2019-01-18T23:20:29.999Z,78.47
2019-01-18T23:23:45.784Z,78.64
2019-01-18T23:27:00.148Z,78.60
2019-01-18T23:30:07.447Z,79.32
2019-01-18T23:32:52.748Z,79.46
2019-01-18T23:36:02.470Z,79.98
2019-01-18T23:39:23.276Z,80.07
2019-01-18T23:43:04.427Z,80.30
2019-01-18T23:45:58.410Z,80.66
2019-01-18T23:49:01.347Z,80.77
2019-01-18T23:52:08.616Z,81.15
2019-01-18T23:55:23.177Z,80.85
2019-01-18T23:58:26.268Z,80.43
